Time;durP1;ratioP1;P1;durP2;ratioP2;P2;SDS_P1;SDS_P2;PMS_P1;PMS_P2;Temp;Humidity;BMP_temperature;BMP_pressure;BME280_temperature;BME280_humidity;BME280_pressure;Samples;Min_cycle;Max_cycle;Signal;HPM_P1;HPM_P2
2022/04/13 00:00:33;;;;;;;8.40;5.20;;;;;;;;;;4975915;28;21234;-35
2022/04/13 00:02:59;;;;;;;9.57;5.50;;;;;;;;;;4983129;28;20830;-35
2022/04/13 00:05:25;;;;;;;7.33;5.27;;;;;;;;;;4980835;28;20510;-35
2022/04/13 00:07:51;;;;;;;11.60;5.83;;;;;;;;;;4977275;28;20332;-35
2022/04/13 00:10:17;;;;;;;7.97;6.07;;;;;;;;;;4978027;28;20169;-35
2022/04/13 00:12:44;;;;;;;9.00;5.23;;;;;;;;;;4980735;28;20714;-35
2022/04/13 00:15:10;;;;;;;10.37;5.87;;;;;;;;;;4980080;28;20242;-35
2022/04/13 00:17:36;;;;;;;9.97;5.30;;;;;;;;;;4981084;28;20185;-35
2022/04/13 00:20:03;;;;;;;8.53;5.73;;;;;;;;;;4985183;28;20188;-35
2022/04/13 00:22:30;;;;;;;9.97;6.20;;;;;;;;;;4984629;28;20201;-35
2022/04/13 00:24:56;;;;;;;11.30;5.43;;;;;;;;;;4981653;28;20184;-35
2022/04/13 00:27:22;;;;;;;16.00;6.43;;;;;;;;;;4981926;28;20173;-35
2022/04/13 00:29:48;;;;;;;9.63;6.07;;;;;;;;;;4978177;28;20180;-35
2022/04/13 00:32:14;;;;;;;10.10;6.33;;;;;;;;;;4980847;28;20180;-35
2022/04/13 00:34:41;;;;;;;10.03;6.60;;;;;;;;;;4980378;28;20177;-36
2022/04/13 00:37:07;;;;;;;11.23;6.23;;;;;;;;;;4973602;28;20212;-35
2022/04/13 00:39:33;;;;;;;11.33;6.33;;;;;;;;;;4978941;28;21022;-35
2022/04/13 00:42:00;;;;;;;8.83;6.10;;;;;;;;;;4977683;28;20193;-35
2022/04/13 00:44:27;;;;;;;12.80;7.37;;;;;;;;;;4977486;28;20277;-35
2022/04/13 00:46:54;;;;;;;8.80;5.93;;;;;;;;;;4976704;28;20243;-35
2022/04/13 00:49:20;;;;;;;9.63;6.40;;;;;;;;;;4978171;28;20675;-35
2022/04/13 00:51:46;;;;;;;11.80;6.63;;;;;;;;;;4976811;28;20176;-35
2022/04/13 00:54:13;;;;;;;9.93;6.57;;;;;;;;;;5007287;28;20178;-35
2022/04/13 00:56:40;;;;;;;11.13;7.33;;;;;;;;;;4981522;28;20474;-35
2022/04/13 00:59:09;;;;;;;11.93;6.70;;;;;;;;;;4979394;28;20696;-36
2022/04/13 01:01:37;;;;;;;10.67;7.30;;;;;;;;;;4977102;28;20181;-35
2022/04/13 01:04:04;;;;;;;10.20;6.87;;;;;;;;;;4980076;28;20784;-35
2022/04/13 01:06:31;;;;;;;10.50;7.10;;;;;;;;;;4975310;28;20173;-35
2022/04/13 01:08:58;;;;;;;12.33;7.83;;;;;;;;;;4976958;28;20173;-35
2022/04/13 01:11:27;;;;;;;11.57;7.17;;;;;;;;;;4977922;28;20188;-35
2022/04/13 01:13:54;;;;;;;13.33;7.53;;;;;;;;;;4979464;28;20189;-35
2022/04/13 01:16:21;;;;;;;9.00;7.00;;;;;;;;;;4977833;28;20173;-35
2022/04/13 01:18:47;;;;;;;12.07;6.97;;;;;;;;;;4980472;28;20255;-35
2022/04/13 01:21:15;;;;;;;11.13;7.87;;;;;;;;;;4980183;28;20204;-35
2022/04/13 01:23:42;;;;;;;13.33;7.77;;;;;;;;;;4978425;28;20233;-36
2022/04/13 01:26:10;;;;;;;14.37;7.47;;;;;;;;;;4976095;28;20362;-35
2022/04/13 01:28:36;;;;;;;10.80;7.37;;;;;;;;;;4982119;28;20212;-35
2022/04/13 01:31:02;;;;;;;12.10;7.10;;;;;;;;;;4978937;28;20185;-36
2022/04/13 01:33:29;;;;;;;13.57;7.60;;;;;;;;;;4977492;28;20850;-36
2022/04/13 01:36:00;;;;;;;10.80;7.40;;;;;;;;;;4979951;28;20312;-35
2022/04/13 01:38:26;;;;;;;13.73;7.57;;;;;;;;;;4976592;28;20677;-36
2022/04/13 01:40:52;;;;;;;12.10;7.23;;;;;;;;;;4975120;28;20195;-35
2022/04/13 01:43:19;;;;;;;12.73;7.40;;;;;;;;;;4975903;28;20198;-36
2022/04/13 01:45:45;;;;;;;13.20;7.30;;;;;;;;;;4978122;28;20270;-35
2022/04/13 01:48:11;;;;;;;17.10;7.47;;;;;;;;;;4977443;28;20680;-36
2022/04/13 01:50:37;;;;;;;10.83;7.50;;;;;;;;;;4977321;28;20201;-35
2022/04/13 01:53:03;;;;;;;11.40;7.83;;;;;;;;;;4976595;28;20559;-35
2022/04/13 01:55:29;;;;;;;12.90;7.90;;;;;;;;;;4973966;28;20180;-35
2022/04/13 01:57:55;;;;;;;10.93;8.10;;;;;;;;;;4978459;28;20584;-35
2022/04/13 02:00:21;;;;;;;12.77;8.07;;;;;;;;;;4976242;28;20207;-36
2022/04/13 02:02:47;;;;;;;12.57;8.07;;;;;;;;;;4975572;28;21827;-35
2022/04/13 02:05:14;;;;;;;14.77;7.63;;;;;;;;;;4979517;28;20211;-35
2022/04/13 02:07:40;;;;;;;13.27;7.97;;;;;;;;;;4975415;28;20173;-35
2022/04/13 02:10:06;;;;;;;11.33;8.00;;;;;;;;;;4978446;28;20728;-35
2022/04/13 02:12:32;;;;;;;14.93;8.17;;;;;;;;;;5015508;28;20435;-35
2022/04/13 02:14:58;;;;;;;11.93;7.97;;;;;;;;;;4981350;28;20176;-35
2022/04/13 02:17:24;;;;;;;11.10;7.53;;;;;;;;;;4974567;28;20279;-36
2022/04/13 02:19:51;;;;;;;12.63;8.40;;;;;;;;;;4974158;28;20815;-35
2022/04/13 02:22:17;;;;;;;13.23;8.43;;;;;;;;;;4976496;28;21049;-35
2022/04/13 02:24:43;;;;;;;12.17;7.97;;;;;;;;;;4977087;28;20589;-36
2022/04/13 02:27:09;;;;;;;14.03;8.97;;;;;;;;;;4975680;28;20177;-35
2022/04/13 02:29:36;;;;;;;14.33;8.97;;;;;;;;;;4978064;28;21006;-35
2022/04/13 02:32:03;;;;;;;12.27;8.67;;;;;;;;;;4984643;28;20193;-36
2022/04/13 02:34:29;;;;;;;13.57;8.73;;;;;;;;;;4976631;28;20181;-35
2022/04/13 02:36:56;;;;;;;13.33;8.73;;;;;;;;;;4973936;28;21616;-35
2022/04/13 02:39:23;;;;;;;16.53;9.00;;;;;;;;;;4976982;28;20687;-36
2022/04/13 02:41:49;;;;;;;13.87;9.17;;;;;;;;;;4972243;28;20177;-36
2022/04/13 02:44:15;;;;;;;14.10;8.67;;;;;;;;;;4974422;28;20578;-35
2022/04/13 02:46:41;;;;;;;13.93;8.57;;;;;;;;;;4976561;28;20177;-35
2022/04/13 02:49:08;;;;;;;14.53;9.00;;;;;;;;;;4977471;28;20263;-35
2022/04/13 02:51:34;;;;;;;16.63;9.80;;;;;;;;;;4977415;28;20185;-35
2022/04/13 02:54:00;;;;;;;13.53;8.73;;;;;;;;;;4977104;28;20983;-35
2022/04/13 02:56:26;;;;;;;15.47;8.70;;;;;;;;;;4977292;28;20184;-35
2022/04/13 02:58:52;;;;;;;15.60;9.00;;;;;;;;;;4973976;28;20182;-35
2022/04/13 03:01:18;;;;;;;14.80;9.50;;;;;;;;;;4974865;28;20681;-35
2022/04/13 03:03:44;;;;;;;14.70;9.53;;;;;;;;;;4977010;28;20201;-35
2022/04/13 03:06:10;;;;;;;15.07;10.57;;;;;;;;;;4976303;28;20224;-36
2022/04/13 03:08:36;;;;;;;17.50;10.77;;;;;;;;;;4975912;28;20315;-36
2022/04/13 03:11:03;;;;;;;15.17;10.77;;;;;;;;;;4970923;28;20447;-36
2022/04/13 03:13:29;;;;;;;17.20;10.77;;;;;;;;;;4976943;28;20486;-35
2022/04/13 03:15:55;;;;;;;20.20;11.43;;;;;;;;;;4977825;28;20581;-35
2022/04/13 03:18:21;;;;;;;19.67;12.70;;;;;;;;;;4973473;28;20430;-36
2022/04/13 03:20:47;;;;;;;22.57;14.00;;;;;;;;;;4975342;28;20442;-35
2022/04/13 03:23:13;;;;;;;24.40;14.90;;;;;;;;;;4991774;28;20987;-35
2022/04/13 03:25:39;;;;;;;22.03;14.43;;;;;;;;;;4974612;28;20200;-35
2022/04/13 03:28:05;;;;;;;24.37;14.33;;;;;;;;;;4978067;28;20428;-36
2022/04/13 03:30:31;;;;;;;27.53;14.30;;;;;;;;;;4980993;28;20169;-35
2022/04/13 03:32:58;;;;;;;23.00;14.07;;;;;;;;;;4971263;28;20555;-36
2022/04/13 03:35:24;;;;;;;25.37;15.33;;;;;;;;;;4977873;28;20671;-35
2022/04/13 03:37:50;;;;;;;23.07;14.60;;;;;;;;;;4974305;28;20181;-35
2022/04/13 03:40:16;;;;;;;23.47;14.30;;;;;;;;;;4976422;28;20478;-35
2022/04/13 03:42:42;;;;;;;24.20;16.17;;;;;;;;;;4975934;28;20502;-35
2022/04/13 03:45:11;;;;;;;26.47;15.07;;;;;;;;;;4975563;28;20713;-35
2022/04/13 03:47:38;;;;;;;24.73;16.70;;;;;;;;;;4971755;28;20733;-35
2022/04/13 03:50:04;;;;;;;23.60;15.60;;;;;;;;;;4976705;28;20181;-35
2022/04/13 03:52:34;;;;;;;25.37;14.97;;;;;;;;;;4972948;28;21369;-35
2022/04/13 03:55:01;;;;;;;19.53;12.67;;;;;;;;;;4978067;28;20215;-35
2022/04/13 03:57:27;;;;;;;24.03;13.97;;;;;;;;;;4977432;28;20879;-35
2022/04/13 03:59:53;;;;;;;20.27;12.57;;;;;;;;;;4974060;28;21140;-35
2022/04/13 04:02:19;;;;;;;21.23;12.47;;;;;;;;;;4973321;28;20452;-35
2022/04/13 04:04:45;;;;;;;19.63;11.33;;;;;;;;;;4979659;28;20470;-35
2022/04/13 04:07:12;;;;;;;22.50;11.97;;;;;;;;;;4974576;28;20430;-35
2022/04/13 04:09:38;;;;;;;18.47;11.00;;;;;;;;;;4975134;28;20751;-35
2022/04/13 04:12:04;;;;;;;23.43;10.80;;;;;;;;;;4971580;28;20848;-35
2022/04/13 04:14:30;;;;;;;24.97;11.40;;;;;;;;;;4973502;28;20794;-35
2022/04/13 04:16:56;;;;;;;28.83;12.67;;;;;;;;;;4976353;28;20897;-35
2022/04/13 04:19:22;;;;;;;34.00;14.40;;;;;;;;;;4974759;28;20428;-35
2022/04/13 04:21:48;;;;;;;18.13;10.70;;;;;;;;;;4976597;28;20423;-34
2022/04/13 04:24:14;;;;;;;19.77;11.30;;;;;;;;;;4981486;28;20962;-35
2022/04/13 04:26:42;;;;;;;17.60;11.97;;;;;;;;;;4974832;28;20470;-34
2022/04/13 04:29:08;;;;;;;18.47;11.20;;;;;;;;;;5009645;28;20427;-34
2022/04/13 04:31:49;;;;;;;19.00;11.80;;;;;;;;;;4977983;28;20513;-35
2022/04/13 04:34:16;;;;;;;20.90;11.90;;;;;;;;;;4975663;28;20947;-35
2022/04/13 04:36:42;;;;;;;20.07;11.47;;;;;;;;;;4977939;28;20495;-35
2022/04/13 04:39:08;;;;;;;18.40;11.50;;;;;;;;;;4995019;28;21038;-35
2022/04/13 04:41:35;;;;;;;19.43;10.93;;;;;;;;;;4976350;28;20513;-35
2022/04/13 04:44:01;;;;;;;19.73;11.47;;;;;;;;;;4981174;28;21038;-35
2022/04/13 04:46:27;;;;;;;19.70;11.10;;;;;;;;;;4980808;28;20444;-35
2022/04/13 04:48:54;;;;;;;24.80;12.37;;;;;;;;;;4981705;28;20460;-35
2022/04/13 04:51:20;;;;;;;18.43;11.27;;;;;;;;;;4976573;28;21950;-35
2022/04/13 04:53:49;;;;;;;18.83;11.43;;;;;;;;;;4983541;28;21283;-35
2022/04/13 04:56:16;;;;;;;15.13;11.07;;;;;;;;;;4995503;28;20478;-35
2022/04/13 04:58:42;;;;;;;18.83;12.17;;;;;;;;;;4978815;28;20440;-35
2022/04/13 05:01:09;;;;;;;18.13;11.47;;;;;;;;;;4979075;28;21137;-35
2022/04/13 05:03:35;;;;;;;16.57;11.83;;;;;;;;;;4980084;28;21328;-35
2022/04/13 05:06:01;;;;;;;22.23;12.43;;;;;;;;;;4976970;28;20537;-35
2022/04/13 05:08:27;;;;;;;18.10;12.73;;;;;;;;;;4977123;28;20547;-35
2022/04/13 05:10:53;;;;;;;27.07;13.77;;;;;;;;;;4977171;28;20432;-35
2022/04/13 05:13:20;;;;;;;20.10;12.27;;;;;;;;;;4979030;28;20513;-35
2022/04/13 05:15:46;;;;;;;21.40;12.83;;;;;;;;;;4973833;28;20450;-36
2022/04/13 05:18:12;;;;;;;23.73;12.83;;;;;;;;;;4980098;28;20722;-35
2022/04/13 05:20:39;;;;;;;19.40;12.80;;;;;;;;;;4981550;28;20894;-35
2022/04/13 05:23:05;;;;;;;21.07;13.67;;;;;;;;;;4988561;28;20456;-35
2022/04/13 05:25:31;;;;;;;26.00;14.77;;;;;;;;;;4972257;28;21333;-36
2022/04/13 05:27:57;;;;;;;22.60;14.17;;;;;;;;;;4970293;28;20987;-35
2022/04/13 05:30:23;;;;;;;23.30;14.93;;;;;;;;;;4975287;28;21007;-35
2022/04/13 05:32:50;;;;;;;28.40;15.83;;;;;;;;;;4976039;28;20713;-36
2022/04/13 05:35:17;;;;;;;25.60;15.40;;;;;;;;;;4983341;28;21092;-36
2022/04/13 05:37:43;;;;;;;26.80;16.47;;;;;;;;;;4971506;28;20453;-36
2022/04/13 05:40:10;;;;;;;27.97;15.50;;;;;;;;;;4991360;28;20419;-36
2022/04/13 05:42:36;;;;;;;23.43;15.67;;;;;;;;;;4981015;28;20454;-36
2022/04/13 05:45:03;;;;;;;26.07;16.07;;;;;;;;;;4981254;28;20412;-36
2022/04/13 05:47:29;;;;;;;25.47;15.27;;;;;;;;;;4974930;28;20487;-36
2022/04/13 05:49:55;;;;;;;26.40;16.70;;;;;;;;;;4975284;28;20978;-37
2022/04/13 05:52:21;;;;;;;30.30;17.53;;;;;;;;;;4981532;28;20438;-36
2022/04/13 05:54:47;;;;;;;25.60;18.00;;;;;;;;;;4977198;28;20411;-36
2022/04/13 05:57:13;;;;;;;34.43;19.10;;;;;;;;;;4981355;28;20839;-36
2022/04/13 05:59:39;;;;;;;29.10;19.77;;;;;;;;;;4979545;28;20480;-36
2022/04/13 06:02:06;;;;;;;30.07;21.03;;;;;;;;;;4978758;28;20481;-36
2022/04/13 06:04:32;;;;;;;32.07;20.40;;;;;;;;;;4981362;28;20851;-36
2022/04/13 06:06:59;;;;;;;38.23;23.77;;;;;;;;;;4979636;28;20169;-36
2022/04/13 06:09:25;;;;;;;42.87;26.07;;;;;;;;;;4979010;28;20420;-36
2022/04/13 06:11:51;;;;;;;40.27;28.17;;;;;;;;;;4976179;28;20836;-36
2022/04/13 06:14:18;;;;;;;40.17;28.53;;;;;;;;;;4981215;28;20430;-37
2022/04/13 06:16:44;;;;;;;47.27;30.70;;;;;;;;;;4982200;28;20463;-36
2022/04/13 06:19:11;;;;;;;44.57;28.37;;;;;;;;;;4979361;28;20188;-36
2022/04/13 06:21:37;;;;;;;50.83;31.67;;;;;;;;;;4978216;28;20587;-36
2022/04/13 06:24:03;;;;;;;52.20;30.80;;;;;;;;;;4979028;28;20497;-36
2022/04/13 06:26:29;;;;;;;49.20;30.07;;;;;;;;;;4976712;28;20494;-36
2022/04/13 06:28:55;;;;;;;44.20;29.60;;;;;;;;;;4977075;28;20274;-36
2022/04/13 06:31:21;;;;;;;44.63;28.20;;;;;;;;;;4976972;28;20415;-36
2022/04/13 06:33:52;;;;;;;41.53;27.17;;;;;;;;;;4979828;28;21327;-36
2022/04/13 06:36:18;;;;;;;38.17;27.07;;;;;;;;;;4977976;28;20503;-36
2022/04/13 06:38:46;;;;;;;39.87;25.67;;;;;;;;;;4975740;28;20404;-36
2022/04/13 06:41:13;;;;;;;37.97;27.00;;;;;;;;;;4977194;28;20215;-36
2022/04/13 06:43:39;;;;;;;39.63;28.00;;;;;;;;;;4995836;28;20200;-36
2022/04/13 06:46:06;;;;;;;39.47;28.07;;;;;;;;;;4977698;28;20728;-36
2022/04/13 06:48:32;;;;;;;40.53;26.83;;;;;;;;;;4976925;28;20478;-36
2022/04/13 06:51:00;;;;;;;39.80;26.57;;;;;;;;;;4979813;28;20184;-37
2022/04/13 06:53:26;;;;;;;40.33;26.73;;;;;;;;;;4979099;28;20184;-36
2022/04/13 06:55:52;;;;;;;35.27;24.40;;;;;;;;;;4977540;28;20208;-36
2022/04/13 06:58:19;;;;;;;39.67;23.70;;;;;;;;;;4981226;28;20857;-36
2022/04/13 07:00:45;;;;;;;33.77;23.13;;;;;;;;;;4980053;28;20169;-37
2022/04/13 07:03:11;;;;;;;28.97;21.50;;;;;;;;;;4976761;28;20201;-36
2022/04/13 07:05:38;;;;;;;27.77;21.73;;;;;;;;;;4974678;28;20191;-36
2022/04/13 07:08:04;;;;;;;34.67;23.40;;;;;;;;;;4979744;28;20364;-37
2022/04/13 07:10:31;;;;;;;34.70;23.23;;;;;;;;;;4975887;28;20447;-37
2022/04/13 07:12:58;;;;;;;29.47;22.97;;;;;;;;;;4981296;28;20291;-36
2022/04/13 07:15:24;;;;;;;32.77;21.93;;;;;;;;;;4975618;28;20428;-37
2022/04/13 07:17:50;;;;;;;35.40;24.77;;;;;;;;;;4975444;28;20177;-36
2022/04/13 07:20:17;;;;;;;31.07;24.33;;;;;;;;;;4981087;28;20739;-36
2022/04/13 07:22:53;;;;;;;31.60;23.37;;;;;;;;;;4978702;28;20826;-36
2022/04/13 07:25:19;;;;;;;33.03;22.47;;;;;;;;;;4975685;28;20565;-36
2022/04/13 07:27:46;;;;;;;34.50;25.13;;;;;;;;;;4973363;28;20957;-36
2022/04/13 07:30:13;;;;;;;28.53;20.10;;;;;;;;;;4975297;28;20256;-37
2022/04/13 07:32:39;;;;;;;25.33;18.10;;;;;;;;;;4978176;28;20188;-37
2022/04/13 07:35:06;;;;;;;28.13;22.03;;;;;;;;;;4976113;28;20488;-37
2022/04/13 07:37:32;;;;;;;32.30;22.97;;;;;;;;;;4973875;28;20246;-37
2022/04/13 07:39:59;;;;;;;30.40;23.50;;;;;;;;;;4974751;28;20208;-37
2022/04/13 07:42:26;;;;;;;29.70;20.60;;;;;;;;;;4976406;28;20178;-37
2022/04/13 07:44:53;;;;;;;22.33;17.47;;;;;;;;;;5008430;28;20181;-36
2022/04/13 07:47:22;;;;;;;28.07;19.47;;;;;;;;;;4978337;28;20344;-36
2022/04/13 07:49:49;;;;;;;26.03;19.17;;;;;;;;;;4978948;28;20176;-36
2022/04/13 07:52:15;;;;;;;24.43;18.90;;;;;;;;;;4979230;28;20176;-37
2022/04/13 07:54:41;;;;;;;29.60;18.90;;;;;;;;;;4983258;28;20173;-37
2022/04/13 07:57:08;;;;;;;26.23;19.43;;;;;;;;;;4979447;28;20458;-37
2022/04/13 07:59:34;;;;;;;25.13;17.80;;;;;;;;;;4975262;28;20203;-37
2022/04/13 08:02:01;;;;;;;28.37;19.53;;;;;;;;;;4976502;28;20184;-36
2022/04/13 08:04:28;;;;;;;24.83;18.57;;;;;;;;;;4979612;28;20211;-37
2022/04/13 08:06:54;;;;;;;26.93;18.17;;;;;;;;;;4979741;28;21001;-37
2022/04/13 08:09:20;;;;;;;23.10;18.50;;;;;;;;;;4976827;28;20627;-37
2022/04/13 08:11:46;;;;;;;25.60;17.93;;;;;;;;;;4978183;28;20690;-36
2022/04/13 08:14:13;;;;;;;23.63;15.33;;;;;;;;;;4981174;28;20586;-37
2022/04/13 08:16:39;;;;;;;19.97;13.13;;;;;;;;;;4980957;28;20816;-37
2022/04/13 08:19:05;;;;;;;19.90;14.13;;;;;;;;;;4981481;28;20179;-36
2022/04/13 08:21:33;;;;;;;15.73;11.37;;;;;;;;;;4984128;28;20172;-37
2022/04/13 08:23:59;;;;;;;20.10;12.87;;;;;;;;;;4981122;28;20333;-36
2022/04/13 08:26:25;;;;;;;20.50;13.93;;;;;;;;;;4975867;28;20176;-37
2022/04/13 08:28:51;;;;;;;20.30;12.97;;;;;;;;;;4981910;28;20805;-37
2022/04/13 08:31:18;;;;;;;20.73;14.03;;;;;;;;;;4978077;28;20184;-37
2022/04/13 08:33:46;;;;;;;21.33;14.03;;;;;;;;;;4982122;28;20181;-37
2022/04/13 08:36:12;;;;;;;23.93;16.90;;;;;;;;;;4982699;28;21024;-37
2022/04/13 08:38:38;;;;;;;28.80;18.27;;;;;;;;;;4980064;28;20747;-35
2022/04/13 08:41:12;;;;;;;23.47;17.43;;;;;;;;;;4977626;28;20208;-35
2022/04/13 08:43:46;;;;;;;25.37;17.13;;;;;;;;;;4979794;28;20510;-37
2022/04/13 08:46:14;;;;;;;23.87;17.03;;;;;;;;;;4979423;28;20382;-35
2022/04/13 08:48:40;;;;;;;26.03;17.13;;;;;;;;;;4985861;28;20259;-35
2022/04/13 08:51:09;;;;;;;22.40;17.20;;;;;;;;;;4980261;28;20224;-35
2022/04/13 08:53:36;;;;;;;22.37;16.10;;;;;;;;;;4976459;28;20663;-35
2022/04/13 08:56:03;;;;;;;20.23;14.30;;;;;;;;;;4977404;28;20590;-36
2022/04/13 08:58:33;;;;;;;19.53;13.97;;;;;;;;;;4980362;28;20507;-35
2022/04/13 09:01:03;;;;;;;20.20;13.27;;;;;;;;;;4980732;28;20181;-36
2022/04/13 09:03:43;;;;;;;17.63;12.13;;;;;;;;;;4979019;28;20193;-36
2022/04/13 09:06:09;;;;;;;19.40;12.80;;;;;;;;;;4978547;28;20417;-35
2022/04/13 09:08:57;;;;;;;21.80;13.00;;;;;;;;;;4980048;28;20188;-35
2022/04/13 09:11:23;;;;;;;20.17;12.13;;;;;;;;;;4980339;28;20765;-36
2022/04/13 09:13:50;;;;;;;16.07;11.77;;;;;;;;;;4982960;28;20670;-35
2022/04/13 09:16:16;;;;;;;15.40;10.50;;;;;;;;;;4980207;28;20666;-36
2022/04/13 09:18:43;;;;;;;15.23;10.80;;;;;;;;;;4974839;28;20173;-35
2022/04/13 09:21:09;;;;;;;18.33;10.90;;;;;;;;;;4979719;28;20348;-36
2022/04/13 09:23:35;;;;;;;17.70;10.80;;;;;;;;;;4984105;28;20201;-35
2022/04/13 09:26:02;;;;;;;14.00;9.07;;;;;;;;;;4982513;28;20248;-36
2022/04/13 09:28:28;;;;;;;15.60;9.40;;;;;;;;;;4977341;28;20718;-35
2022/04/13 09:30:55;;;;;;;14.50;9.37;;;;;;;;;;4979698;28;20173;-35
2022/04/13 09:33:23;;;;;;;13.40;8.33;;;;;;;;;;4983618;28;20548;-36
2022/04/13 09:35:49;;;;;;;15.20;8.73;;;;;;;;;;4976877;28;20212;-35
2022/04/13 09:38:16;;;;;;;13.80;8.60;;;;;;;;;;4977147;28;20539;-35
2022/04/13 09:40:42;;;;;;;14.07;8.87;;;;;;;;;;4976382;28;20592;-35
2022/04/13 09:43:10;;;;;;;12.43;9.00;;;;;;;;;;4981273;28;20630;-36
2022/04/13 09:45:37;;;;;;;18.97;12.23;;;;;;;;;;4977278;28;20188;-35
2022/04/13 09:48:06;;;;;;;16.37;11.23;;;;;;;;;;4976728;28;20165;-35
2022/04/13 09:50:33;;;;;;;19.57;12.33;;;;;;;;;;4979750;28;20181;-35
2022/04/13 09:53:03;;;;;;;16.57;11.20;;;;;;;;;;4983406;28;20694;-36
2022/04/13 09:55:30;;;;;;;15.10;10.50;;;;;;;;;;4976426;28;20985;-35
2022/04/13 09:58:16;;;;;;;18.23;10.80;;;;;;;;;;4975899;28;20527;-36
2022/04/13 10:00:43;;;;;;;17.57;11.87;;;;;;;;;;4979554;28;20238;-35
2022/04/13 10:03:16;;;;;;;17.43;10.90;;;;;;;;;;4980206;28;20568;-36
2022/04/13 10:05:46;;;;;;;12.87;10.00;;;;;;;;;;4977797;28;20165;-35
2022/04/13 10:08:13;;;;;;;17.13;10.90;;;;;;;;;;4975202;28;20197;-35
2022/04/13 10:10:40;;;;;;;15.60;11.00;;;;;;;;;;4977209;28;20284;-35
2022/04/13 10:13:07;;;;;;;15.47;9.43;;;;;;;;;;4977757;28;20500;-35
2022/04/13 10:15:33;;;;;;;13.97;8.77;;;;;;;;;;4974309;28;20455;-35
2022/04/13 10:17:59;;;;;;;13.17;8.63;;;;;;;;;;4980277;28;20510;-35
2022/04/13 10:20:42;;;;;;;15.13;10.07;;;;;;;;;;4974161;28;20180;-36
2022/04/13 10:23:08;;;;;;;11.97;8.83;;;;;;;;;;4977708;28;20993;-36
2022/04/13 10:25:34;;;;;;;8.60;6.50;;;;;;;;;;4978626;28;20571;-35
2022/04/13 10:28:01;;;;;;;12.47;7.13;;;;;;;;;;4977441;28;20173;-35
2022/04/13 10:30:30;;;;;;;10.23;7.70;;;;;;;;;;4984926;28;20660;-36
2022/04/13 10:33:09;;;;;;;14.53;8.73;;;;;;;;;;4977737;28;20589;-36
2022/04/13 10:35:36;;;;;;;12.00;8.03;;;;;;;;;;4976497;28;20177;-36
2022/04/13 10:38:03;;;;;;;10.30;7.60;;;;;;;;;;4975859;28;20197;-37
2022/04/13 10:40:48;;;;;;;9.90;6.53;;;;;;;;;;4972787;28;20636;-36
2022/04/13 10:43:14;;;;;;;10.63;7.03;;;;;;;;;;4976805;28;20783;-36
2022/04/13 10:45:43;;;;;;;11.37;7.67;;;;;;;;;;4978321;28;20542;-36
2022/04/13 10:48:10;;;;;;;10.53;6.30;;;;;;;;;;4975511;28;20481;-36
2022/04/13 10:50:39;;;;;;;9.13;6.10;;;;;;;;;;4977548;28;20512;-37
2022/04/13 10:53:20;;;;;;;9.43;5.73;;;;;;;;;;4979288;28;20737;-37
2022/04/13 10:55:50;;;;;;;8.93;6.47;;;;;;;;;;4975013;28;20538;-37
2022/04/13 10:58:42;;;;;;;12.63;7.67;;;;;;;;;;4971914;28;20188;-35
2022/04/13 11:01:14;;;;;;;11.13;7.77;;;;;;;;;;4970160;28;21108;-35
2022/04/13 11:03:41;;;;;;;10.63;7.17;;;;;;;;;;4979037;28;20251;-35
2022/04/13 11:06:08;;;;;;;8.57;5.87;;;;;;;;;;4972666;28;21116;-36
2022/04/13 11:08:37;;;;;;;9.80;7.47;;;;;;;;;;4974267;28;20711;-35
2022/04/13 11:11:03;;;;;;;8.33;6.83;;;;;;;;;;4970086;28;20675;-35
2022/04/13 11:13:33;;;;;;;9.80;6.73;;;;;;;;;;4979424;28;20296;-35
2022/04/13 11:16:14;;;;;;;9.47;5.70;;;;;;;;;;4977766;28;20248;-35
2022/04/13 11:18:40;;;;;;;8.37;5.90;;;;;;;;;;4977169;28;20169;-36
2022/04/13 11:21:07;;;;;;;8.67;5.67;;;;;;;;;;4976403;28;20457;-35
2022/04/13 11:23:52;;;;;;;6.87;5.50;;;;;;;;;;4980772;28;20271;-35
2022/04/13 11:26:36;;;;;;;7.03;5.67;;;;;;;;;;4982492;28;21094;-35
2022/04/13 11:29:11;;;;;;;8.97;5.90;;;;;;;;;;4979005;28;20173;-35
2022/04/13 11:31:56;;;;;;;8.27;5.80;;;;;;;;;;4978779;28;20169;-36
2022/04/13 11:34:32;;;;;;;6.10;5.20;;;;;;;;;;4978978;28;20185;-36
2022/04/13 11:37:02;;;;;;;7.33;4.53;;;;;;;;;;4974157;28;20300;-36
2022/04/13 11:39:48;;;;;;;4.73;3.80;;;;;;;;;;4980471;28;20174;-36
2022/04/13 11:42:20;;;;;;;6.77;5.10;;;;;;;;;;4979524;28;20790;-36
2022/04/13 11:44:47;;;;;;;11.10;4.97;;;;;;;;;;4978182;28;20191;-35
2022/04/13 11:47:14;;;;;;;6.33;4.87;;;;;;;;;;4977700;28;20177;-35
2022/04/13 11:49:58;;;;;;;6.83;4.93;;;;;;;;;;4985047;28;20647;-35
2022/04/13 11:52:41;;;;;;;7.90;4.80;;;;;;;;;;4986362;28;20168;-35
2022/04/13 11:55:35;;;;;;;9.20;5.00;;;;;;;;;;4980157;28;20900;-35
2022/04/13 11:58:10;;;;;;;7.70;5.60;;;;;;;;;;4980912;28;20195;-35
2022/04/13 12:00:36;;;;;;;9.10;6.20;;;;;;;;;;4984100;28;20515;-35
2022/04/13 12:03:03;;;;;;;8.03;5.87;;;;;;;;;;4983000;28;20196;-36
2022/04/13 12:05:29;;;;;;;8.03;5.83;;;;;;;;;;4979946;28;20173;-35
2022/04/13 12:07:55;;;;;;;9.40;5.23;;;;;;;;;;4980615;28;20169;-36
2022/04/13 12:10:24;;;;;;;6.93;5.30;;;;;;;;;;4983553;28;20304;-36
2022/04/13 12:12:51;;;;;;;7.60;6.30;;;;;;;;;;4981436;28;20553;-37
2022/04/13 12:15:17;;;;;;;6.70;5.30;;;;;;;;;;4980049;28;21250;-36
2022/04/13 12:17:43;;;;;;;5.70;4.20;;;;;;;;;;4978087;28;20627;-36
2022/04/13 12:20:09;;;;;;;8.07;5.37;;;;;;;;;;4980120;28;20178;-36
2022/04/13 12:22:36;;;;;;;8.63;4.30;;;;;;;;;;4981022;28;20180;-36
2022/04/13 12:25:04;;;;;;;7.87;5.07;;;;;;;;;;4977553;28;20182;-36
2022/04/13 12:27:30;;;;;;;7.20;4.60;;;;;;;;;;4979212;28;20209;-36
2022/04/13 12:30:29;;;;;;;6.40;5.00;;;;;;;;;;4981241;28;20187;-36
2022/04/13 12:32:55;;;;;;;6.63;4.40;;;;;;;;;;4948164;28;20772;-36
2022/04/13 12:35:21;;;;;;;7.00;4.53;;;;;;;;;;4979570;28;20632;-36
2022/04/13 12:37:54;;;;;;;8.70;5.70;;;;;;;;;;4978484;28;20188;-36
2022/04/13 12:40:21;;;;;;;9.20;5.93;;;;;;;;;;4982227;28;20911;-36
2022/04/13 12:42:47;;;;;;;7.10;5.33;;;;;;;;;;4978398;28;20681;-36
2022/04/13 12:45:13;;;;;;;7.13;5.17;;;;;;;;;;4977243;28;21275;-36
2022/04/13 12:47:46;;;;;;;10.00;5.90;;;;;;;;;;4982032;28;20180;-36
2022/04/13 12:50:13;;;;;;;9.40;4.40;;;;;;;;;;4983900;28;20475;-36
2022/04/13 12:52:39;;;;;;;8.70;4.87;;;;;;;;;;4976981;28;20719;-36
2022/04/13 12:55:06;;;;;;;8.37;5.27;;;;;;;;;;4978579;28;20262;-36
2022/04/13 12:57:32;;;;;;;6.67;5.27;;;;;;;;;;4974180;28;20205;-36
2022/04/13 12:59:58;;;;;;;6.07;3.80;;;;;;;;;;4972498;28;20204;-36
2022/04/13 13:02:25;;;;;;;7.73;4.40;;;;;;;;;;4980121;28;20942;-36
2022/04/13 13:04:51;;;;;;;5.90;3.90;;;;;;;;;;4981908;28;20189;-36
2022/04/13 13:07:17;;;;;;;5.67;3.93;;;;;;;;;;4978241;28;20185;-36
2022/04/13 13:09:52;;;;;;;6.00;3.33;;;;;;;;;;4978170;28;20546;-36
2022/04/13 13:12:19;;;;;;;6.17;3.40;;;;;;;;;;4980482;28;20611;-36
2022/04/13 13:14:51;;;;;;;5.40;2.17;;;;;;;;;;4978890;28;20189;-36
2022/04/13 13:17:19;;;;;;;4.17;2.43;;;;;;;;;;4977143;28;20595;-36
2022/04/13 13:19:46;;;;;;;5.70;2.70;;;;;;;;;;4975630;28;20670;-36
2022/04/13 13:22:23;;;;;;;7.17;2.50;;;;;;;;;;4979721;28;20622;-36
2022/04/13 13:24:49;;;;;;;6.40;2.90;;;;;;;;;;4976503;28;20199;-36
2022/04/13 13:27:16;;;;;;;7.83;2.57;;;;;;;;;;5006849;28;20379;-36
2022/04/13 13:29:46;;;;;;;6.67;2.43;;;;;;;;;;4973681;28;20259;-36
2022/04/13 13:32:13;;;;;;;3.07;2.10;;;;;;;;;;4977137;28;20870;-36
2022/04/13 13:34:39;;;;;;;6.40;2.50;;;;;;;;;;4973346;28;21128;-36
2022/04/13 13:37:06;;;;;;;4.20;2.40;;;;;;;;;;4973074;28;20792;-36
2022/04/13 13:39:32;;;;;;;6.17;2.30;;;;;;;;;;4978377;28;20502;-36
2022/04/13 13:42:16;;;;;;;6.17;2.30;;;;;;;;;;4980988;28;20538;-36
2022/04/13 13:44:42;;;;;;;2.63;1.70;;;;;;;;;;4977261;28;20188;-36
2022/04/13 13:47:08;;;;;;;3.33;2.23;;;;;;;;;;4975741;28;20200;-36
2022/04/13 13:49:34;;;;;;;4.33;2.00;;;;;;;;;;4972894;28;20207;-35
2022/04/13 13:52:00;;;;;;;3.80;2.17;;;;;;;;;;4979002;28;20786;-36
2022/04/13 13:54:27;;;;;;;5.73;1.70;;;;;;;;;;4975707;28;20433;-36
2022/04/13 13:56:53;;;;;;;6.37;2.23;;;;;;;;;;4975427;28;20893;-36
2022/04/13 13:59:19;;;;;;;6.17;1.93;;;;;;;;;;4975534;28;20482;-36
2022/04/13 14:01:46;;;;;;;3.30;1.80;;;;;;;;;;4974369;28;20188;-36
2022/04/13 14:04:12;;;;;;;3.60;1.87;;;;;;;;;;4973822;28;20916;-36
2022/04/13 14:06:38;;;;;;;3.10;1.70;;;;;;;;;;4970850;28;20195;-36
2022/04/13 14:09:04;;;;;;;3.10;1.90;;;;;;;;;;4975666;28;20181;-36
2022/04/13 14:11:31;;;;;;;4.20;1.70;;;;;;;;;;5002832;28;20178;-36
2022/04/13 14:13:57;;;;;;;4.50;2.00;;;;;;;;;;4970662;28;20642;-36
2022/04/13 14:16:23;;;;;;;4.93;2.20;;;;;;;;;;4970777;28;20181;-36
2022/04/13 14:18:52;;;;;;;4.20;1.80;;;;;;;;;;4975956;28;20622;-36
2022/04/13 14:21:18;;;;;;;4.17;1.87;;;;;;;;;;4978639;28;21041;-35
2022/04/13 14:23:44;;;;;;;6.83;1.60;;;;;;;;;;4977616;28;20661;-36
2022/04/13 14:26:10;;;;;;;3.17;1.47;;;;;;;;;;4979208;28;20169;-36
2022/04/13 14:28:36;;;;;;;8.03;1.70;;;;;;;;;;4977628;28;20185;-36
2022/04/13 14:31:03;;;;;;;3.73;1.87;;;;;;;;;;4971975;28;20433;-35